createdAt,value
2016-12-25T00:01:17.628Z,86.609
2016-12-25T00:04:09.798Z,86.564
2016-12-25T00:07:05.347Z,86.642
2016-12-25T00:09:57.434Z,86.240
2016-12-25T00:12:51.854Z,86.533
2016-12-25T00:15:45.633Z,86.777
2016-12-25T00:18:39.684Z,86.822
2016-12-25T00:21:33.590Z,86.743
2016-12-25T00:24:27.481Z,86.586
2016-12-25T00:27:21.311Z,86.894
2016-12-25T00:30:15.123Z,87.612
2016-12-25T00:33:09.004Z,88.189
2016-12-25T00:36:02.944Z,88.642
2016-12-25T00:38:56.711Z,88.380
2016-12-25T00:41:50.538Z,89.680
2016-12-25T00:44:44.343Z,90.139
2016-12-25T00:47:38.251Z,91.116
2016-12-25T00:50:32.020Z,91.321
2016-12-25T00:53:27.526Z,91.311
2016-12-25T00:56:19.461Z,90.447
2016-12-25T00:59:13.420Z,92.153
2016-12-25T01:02:07.311Z,92.016
2016-12-25T01:05:01.087Z,91.007
2016-12-25T01:07:54.782Z,91.999
2016-12-25T01:10:48.448Z,92.098
2016-12-25T01:13:42.028Z,94.229
2016-12-25T01:16:35.778Z,94.619
2016-12-25T01:19:31.105Z,95.818
2016-12-25T01:22:23.069Z,96.640
2016-12-25T01:25:16.687Z,97.562
2016-12-25T01:28:10.394Z,97.715
2016-12-25T01:31:04.103Z,97.871
2016-12-25T01:33:57.756Z,98.256
2016-12-25T01:36:51.550Z,98.438
2016-12-25T01:39:45.212Z,96.937
2016-12-25T01:42:38.893Z,96.374
2016-12-25T01:45:32.461Z,96.625
2016-12-25T01:48:26.175Z,97.048
2016-12-25T01:51:21.681Z,97.462
2016-12-25T01:54:13.630Z,97.760
2016-12-25T01:57:09.005Z,97.468
2016-12-25T02:00:02.716Z,97.478
2016-12-25T02:02:55.168Z,97.034
2016-12-25T02:05:48.938Z,97.747
2016-12-25T02:08:42.768Z,97.898
2016-12-25T02:11:36.390Z,97.603
2016-12-25T02:14:30.163Z,96.791
2016-12-25T02:17:23.751Z,97.718
2016-12-25T02:20:17.365Z,97.173
2016-12-25T02:23:12.792Z,97.827
2016-12-25T02:26:04.896Z,97.962
2016-12-25T02:28:58.566Z,97.617
2016-12-25T02:31:52.256Z,97.537
2016-12-25T02:34:45.928Z,97.686
2016-12-25T02:37:39.713Z,97.531
2016-12-25T02:40:33.459Z,98.206
2016-12-25T02:43:27.517Z,98.085
2016-12-25T02:46:21.288Z,97.850
2016-12-25T02:49:14.961Z,97.596
2016-12-25T02:52:08.568Z,97.880
2016-12-25T02:55:02.341Z,97.351
2016-12-25T02:57:56.062Z,98.152
2016-12-25T03:00:49.798Z,98.144
2016-12-25T03:03:43.513Z,98.431
2016-12-25T03:06:38.924Z,98.226
2016-12-25T03:09:30.960Z,98.326
2016-12-25T03:12:26.548Z,97.718
2016-12-25T03:15:18.576Z,97.482
2016-12-25T03:18:12.402Z,98.152
2016-12-25T03:21:06.174Z,98.386
2016-12-25T03:23:59.957Z,98.725
2016-12-25T03:26:55.341Z,98.595
2016-12-25T03:29:47.350Z,98.345
2016-12-25T03:32:41.005Z,98.200
2016-12-25T03:35:34.631Z,98.560
2016-12-25T03:38:28.323Z,97.840
2016-12-25T03:41:22.052Z,98.052
2016-12-25T03:44:15.763Z,98.165
2016-12-25T03:47:09.451Z,97.991
2016-12-25T03:50:03.060Z,97.131
2016-12-25T03:52:56.748Z,97.947
2016-12-25T03:55:50.471Z,98.273
2016-12-25T03:58:44.144Z,98.410
2016-12-25T04:01:37.795Z,98.205
2016-12-25T04:04:33.204Z,98.457
2016-12-25T04:07:25.146Z,98.881
2016-12-25T04:10:18.866Z,98.906
2016-12-25T04:13:12.629Z,99.120
2016-12-25T04:16:06.308Z,98.920
2016-12-25T04:19:00.040Z,98.980
2016-12-25T04:21:53.727Z,98.895
2016-12-25T04:24:47.446Z,98.785
2016-12-25T04:27:41.308Z,98.829
2016-12-25T04:30:35.114Z,98.730
2016-12-25T04:33:28.811Z,98.494
2016-12-25T04:36:22.688Z,98.384
2016-12-25T04:39:16.408Z,98.588
2016-12-25T04:42:10.083Z,98.541
2016-12-25T04:45:03.899Z,98.975
2016-12-25T04:47:57.682Z,98.847
2016-12-25T04:50:51.373Z,98.339
2016-12-25T04:53:45.059Z,98.812
2016-12-25T04:56:38.787Z,98.907
2016-12-25T04:59:32.515Z,98.859
2016-12-25T05:02:26.332Z,98.843
2016-12-25T05:05:20.166Z,98.814
2016-12-25T05:08:15.612Z,98.899
2016-12-25T05:11:09.319Z,99.024
2016-12-25T05:14:01.468Z,99.018
2016-12-25T05:16:55.328Z,99.068
2016-12-25T05:19:49.119Z,98.667
2016-12-25T05:22:42.755Z,99.119
2016-12-25T05:25:38.377Z,99.138
2016-12-25T05:28:30.265Z,99.166
2016-12-25T05:31:24.052Z,99.123
2016-12-25T05:34:17.864Z,99.228
2016-12-25T05:37:13.402Z,98.295
2016-12-25T05:40:05.607Z,99.009
2016-12-25T05:43:01.014Z,99.299
2016-12-25T05:45:54.683Z,99.280
2016-12-25T05:48:46.873Z,99.324
2016-12-25T05:51:40.571Z,99.564
2016-12-25T05:54:35.071Z,99.438
2016-12-25T05:57:28.029Z,99.663
2016-12-25T06:00:21.706Z,99.590
2016-12-25T06:03:17.199Z,99.619
2016-12-25T06:06:09.386Z,99.536
2016-12-25T06:09:03.261Z,99.655
2016-12-25T06:11:56.905Z,99.570
2016-12-25T06:14:50.784Z,99.694
2016-12-25T06:17:44.527Z,99.949
2016-12-25T06:20:38.328Z,99.810
2016-12-25T06:23:34.000Z,99.862
2016-12-25T06:26:25.911Z,99.890
2016-12-25T06:29:19.745Z,99.837
2016-12-25T06:32:13.995Z,99.830
2016-12-25T06:35:07.871Z,99.755
2016-12-25T06:38:01.669Z,99.830
2016-12-25T06:40:57.122Z,99.977
2016-12-25T06:43:49.320Z,100.000
2016-12-25T06:46:43.175Z,100.000
2016-12-25T06:49:36.870Z,100.000
2016-12-25T06:52:32.511Z,100.000
2016-12-25T06:55:24.774Z,100.000
2016-12-25T06:58:20.321Z,100.000
2016-12-25T07:01:14.112Z,100.000
2016-12-25T07:04:06.276Z,100.000
2016-12-25T07:07:00.113Z,100.000
2016-12-25T07:09:53.931Z,100.000
2016-12-25T07:12:49.481Z,100.000
2016-12-25T07:15:41.552Z,100.000
2016-12-25T07:18:37.053Z,100.000
2016-12-25T07:21:29.208Z,100.000
2016-12-25T07:24:23.100Z,100.000
2016-12-25T07:27:16.981Z,100.000
2016-12-25T07:30:10.876Z,100.000
2016-12-25T07:33:04.567Z,100.000
2016-12-25T07:35:58.395Z,100.000
2016-12-25T07:38:52.359Z,100.000
2016-12-25T07:41:46.327Z,100.000
2016-12-25T07:44:40.078Z,100.000
2016-12-25T07:47:33.980Z,100.000
2016-12-25T07:50:27.798Z,100.000
2016-12-25T07:53:21.584Z,100.000
2016-12-25T07:56:15.524Z,100.000
2016-12-25T07:59:09.406Z,100.000
2016-12-25T08:02:03.324Z,100.000
2016-12-25T08:04:57.089Z,100.000
2016-12-25T08:07:52.611Z,100.000
2016-12-25T08:10:44.838Z,100.000
2016-12-25T08:13:38.595Z,100.000
2016-12-25T08:16:32.460Z,100.000
2016-12-25T08:19:26.433Z,100.000
2016-12-25T08:22:20.361Z,100.000
2016-12-25T08:25:14.207Z,100.000
2016-12-25T08:28:08.170Z,100.000
2016-12-25T08:31:02.101Z,100.000
2016-12-25T08:33:56.054Z,99.785
2016-12-25T08:36:50.130Z,100.000
2016-12-25T08:39:45.776Z,100.000
2016-12-25T08:42:39.687Z,100.000
2016-12-25T08:45:33.667Z,100.000
2016-12-25T08:48:25.927Z,99.611
2016-12-25T08:51:19.807Z,99.654
2016-12-25T08:54:13.761Z,99.438
2016-12-25T08:57:07.628Z,99.504
2016-12-25T09:00:01.516Z,99.558
2016-12-25T09:02:55.465Z,99.372
2016-12-25T09:05:51.132Z,99.449
2016-12-25T09:08:43.250Z,99.494
2016-12-25T09:11:38.970Z,99.399
2016-12-25T09:14:31.053Z,99.285
2016-12-25T09:17:25.133Z,99.453
2016-12-25T09:20:19.148Z,99.389
2016-12-25T09:23:13.088Z,99.390
2016-12-25T09:26:06.999Z,99.351
2016-12-25T09:29:00.916Z,99.305
2016-12-25T09:31:54.754Z,99.435
2016-12-25T09:34:50.316Z,99.317
2016-12-25T09:37:44.256Z,99.082
2016-12-25T09:40:38.190Z,99.140
2016-12-25T09:43:30.292Z,99.132
2016-12-25T09:46:24.097Z,99.140
2016-12-25T09:49:18.557Z,98.875
2016-12-25T09:52:12.430Z,99.055
2016-12-25T09:55:06.252Z,98.910
2016-12-25T09:58:00.264Z,98.967
2016-12-25T10:00:54.143Z,99.093
2016-12-25T10:03:48.247Z,99.098
2016-12-25T10:06:42.118Z,99.170
2016-12-25T10:09:36.159Z,99.271
2016-12-25T10:12:31.782Z,99.259
2016-12-25T10:15:23.974Z,99.244
2016-12-25T10:18:17.876Z,99.252
2016-12-25T10:21:11.842Z,99.229
2016-12-25T10:24:05.669Z,99.276
2016-12-25T10:26:59.541Z,99.200
2016-12-25T10:29:53.407Z,99.076
2016-12-25T10:32:47.329Z,99.193
2016-12-25T10:35:42.878Z,99.287
2016-12-25T10:38:35.072Z,99.266
2016-12-25T10:41:29.020Z,99.157
2016-12-25T10:44:22.982Z,99.347
2016-12-25T10:47:16.947Z,99.337
2016-12-25T10:50:12.490Z,99.423
2016-12-25T10:53:04.810Z,99.426
2016-12-25T10:55:58.731Z,99.436
2016-12-25T10:58:54.319Z,99.489
2016-12-25T11:01:46.585Z,99.491
2016-12-25T11:04:40.502Z,99.335
2016-12-25T11:07:34.476Z,99.347
2016-12-25T11:10:28.345Z,99.354
2016-12-25T11:13:24.010Z,99.455
2016-12-25T11:16:18.072Z,99.450
2016-12-25T11:19:12.144Z,99.297
2016-12-25T11:22:04.213Z,99.414
2016-12-25T11:24:59.938Z,99.494
2016-12-25T11:27:52.208Z,99.518
2016-12-25T11:30:46.183Z,99.720
2016-12-25T11:33:40.061Z,99.633
2016-12-25T11:36:35.706Z,99.709
2016-12-25T11:39:27.832Z,99.534
2016-12-25T11:42:21.759Z,99.672
2016-12-25T11:45:17.907Z,99.514
2016-12-25T11:48:10.152Z,99.638
2016-12-25T11:51:04.165Z,99.511
2016-12-25T11:53:58.250Z,99.673
2016-12-25T11:56:52.276Z,99.749
2016-12-25T11:59:47.876Z,99.493
2016-12-25T12:02:41.819Z,99.698
2016-12-25T12:05:34.079Z,99.754
2016-12-25T12:08:29.553Z,99.822
2016-12-25T12:11:21.937Z,99.788
2016-12-25T12:14:15.839Z,99.751
2016-12-25T12:17:09.951Z,99.770
2016-12-25T12:20:03.997Z,99.962
2016-12-25T12:22:58.106Z,100.000
2016-12-25T12:25:52.161Z,99.683
2016-12-25T12:28:46.143Z,99.777
2016-12-25T12:31:40.124Z,99.971
2016-12-25T12:34:34.170Z,100.000
2016-12-25T12:37:28.490Z,100.000
2016-12-25T12:40:22.446Z,99.829
2016-12-25T12:43:16.286Z,99.955
2016-12-25T12:46:10.260Z,100.000
2016-12-25T12:49:04.123Z,100.000
2016-12-25T12:51:59.923Z,99.983
2016-12-25T12:54:52.180Z,100.000
2016-12-25T12:57:46.214Z,99.926
2016-12-25T13:00:40.131Z,99.951
2016-12-25T13:03:34.582Z,99.937
2016-12-25T13:06:28.444Z,100.000
2016-12-25T13:09:22.368Z,100.000
2016-12-25T13:12:16.412Z,100.000
2016-12-25T13:15:10.297Z,100.000
2016-12-25T13:18:04.165Z,100.000
2016-12-25T13:20:58.175Z,99.995
2016-12-25T13:23:52.147Z,99.939
2016-12-25T13:26:46.113Z,99.856
2016-12-25T13:29:39.981Z,100.000
2016-12-25T13:32:33.959Z,100.000
2016-12-25T13:35:27.884Z,100.000
2016-12-25T13:38:23.664Z,99.949
2016-12-25T13:41:15.978Z,100.000
2016-12-25T13:44:10.015Z,100.000
2016-12-25T13:47:04.083Z,100.000
2016-12-25T13:49:58.061Z,100.000
2016-12-25T13:52:52.053Z,99.990
2016-12-25T13:55:46.072Z,99.989
2016-12-25T13:58:40.052Z,100.000
2016-12-25T14:01:35.690Z,100.000
2016-12-25T14:04:28.073Z,100.000
2016-12-25T14:07:22.336Z,99.968
2016-12-25T14:10:16.260Z,100.000
2016-12-25T14:13:11.980Z,100.000
2016-12-25T14:16:04.273Z,100.000
2016-12-25T14:18:58.359Z,100.000
2016-12-25T14:21:52.267Z,100.000
2016-12-25T14:24:46.191Z,100.000
2016-12-25T14:27:41.831Z,100.000
2016-12-25T14:30:35.604Z,100.000
2016-12-25T14:33:27.856Z,100.000
2016-12-25T14:36:21.881Z,100.000
2016-12-25T14:39:15.892Z,100.000
2016-12-25T14:42:09.892Z,100.000
2016-12-25T14:45:03.895Z,100.000
2016-12-25T14:47:57.819Z,100.000
2016-12-25T14:50:53.413Z,100.000
2016-12-25T14:53:45.739Z,100.000
2016-12-25T14:56:39.677Z,100.000
2016-12-25T14:59:33.671Z,100.000
2016-12-25T15:02:27.582Z,100.000
2016-12-25T15:05:21.466Z,100.000
2016-12-25T15:08:15.339Z,100.000
2016-12-25T15:11:09.427Z,100.000
2016-12-25T15:14:05.008Z,100.000
2016-12-25T15:16:57.288Z,100.000
2016-12-25T15:19:51.196Z,100.000
2016-12-25T15:22:45.230Z,100.000
2016-12-25T15:25:39.258Z,100.000
2016-12-25T15:28:33.286Z,100.000
2016-12-25T15:31:27.281Z,100.000
2016-12-25T15:34:21.345Z,100.000
2016-12-25T15:37:17.144Z,100.000
2016-12-25T15:40:09.350Z,100.000
2016-12-25T15:43:03.328Z,100.000
2016-12-25T15:45:57.358Z,100.000
2016-12-25T15:48:51.375Z,100.000
2016-12-25T15:51:45.911Z,100.000
2016-12-25T15:54:39.846Z,100.000
2016-12-25T15:57:33.876Z,100.000
2016-12-25T16:00:27.995Z,100.000
2016-12-25T16:03:22.027Z,100.000
2016-12-25T16:06:15.961Z,100.000
2016-12-25T16:09:10.001Z,100.000
2016-12-25T16:12:04.000Z,100.000
2016-12-25T16:14:59.679Z,100.000
2016-12-25T16:17:51.962Z,100.000
2016-12-25T16:20:45.998Z,100.000
2016-12-25T16:23:39.955Z,100.000
2016-12-25T16:26:33.967Z,100.000
2016-12-25T16:29:27.892Z,100.000
2016-12-25T16:32:22.010Z,100.000
2016-12-25T16:35:17.689Z,100.000
2016-12-25T16:38:09.918Z,100.000
2016-12-25T16:41:03.915Z,100.000
2016-12-25T16:43:59.760Z,100.000
2016-12-25T16:46:52.017Z,100.000
2016-12-25T16:49:46.006Z,100.000
2016-12-25T16:52:39.975Z,100.000
2016-12-25T16:55:35.640Z,100.000
2016-12-25T16:58:27.958Z,100.000
2016-12-25T17:01:21.952Z,99.926
2016-12-25T17:04:16.459Z,99.775
2016-12-25T17:07:10.613Z,99.750
2016-12-25T17:10:04.692Z,99.682
2016-12-25T17:12:58.800Z,99.550
2016-12-25T17:15:52.885Z,99.439
2016-12-25T17:18:46.903Z,99.346
2016-12-25T17:21:40.835Z,99.212
2016-12-25T17:24:34.800Z,99.033
2016-12-25T17:27:28.957Z,99.011
2016-12-25T17:30:22.931Z,98.839
2016-12-25T17:33:18.741Z,98.620
2016-12-25T17:36:11.003Z,98.569
2016-12-25T17:39:05.140Z,98.498
2016-12-25T17:42:00.826Z,98.428
2016-12-25T17:44:54.896Z,98.390
2016-12-25T17:47:47.182Z,98.298
2016-12-25T17:50:41.170Z,98.127
2016-12-25T17:53:35.337Z,98.068
2016-12-25T17:56:29.342Z,98.019
2016-12-25T17:59:23.304Z,97.861
2016-12-25T18:02:17.370Z,97.763
2016-12-25T18:05:11.348Z,97.608
2016-12-25T18:08:05.450Z,97.389
2016-12-25T18:10:59.462Z,97.434
2016-12-25T18:13:53.504Z,97.393
2016-12-25T18:16:47.546Z,97.464
2016-12-25T18:19:41.523Z,97.430
2016-12-25T18:22:35.544Z,97.336
2016-12-25T18:25:29.454Z,97.269
2016-12-25T18:28:23.401Z,97.387
2016-12-25T18:31:17.462Z,97.387
2016-12-25T18:34:11.556Z,97.422
2016-12-25T18:37:05.537Z,97.259
2016-12-25T18:39:59.654Z,97.212
2016-12-25T18:42:53.757Z,97.015
2016-12-25T18:45:47.835Z,97.117
2016-12-25T18:48:43.757Z,96.921
2016-12-25T18:51:35.986Z,96.987
2016-12-25T18:54:29.948Z,97.028
2016-12-25T18:57:24.009Z,96.930
2016-12-25T19:00:18.016Z,96.912
2016-12-25T19:03:11.958Z,97.008
2016-12-25T19:06:05.994Z,97.078
2016-12-25T19:09:00.092Z,97.192
2016-12-25T19:11:54.619Z,97.418
2016-12-25T19:14:48.648Z,97.383
2016-12-25T19:17:42.669Z,97.372
2016-12-25T19:20:38.417Z,97.704
2016-12-25T19:23:30.623Z,97.932
2016-12-25T19:26:24.691Z,98.052
2016-12-25T19:29:18.657Z,98.122
2016-12-25T19:32:12.744Z,98.145
2016-12-25T19:35:06.736Z,98.214
2016-12-25T19:38:00.683Z,98.174
2016-12-25T19:40:54.835Z,97.974
2016-12-25T19:43:48.886Z,97.917
2016-12-25T19:46:44.622Z,97.760
2016-12-25T19:49:37.038Z,97.583
2016-12-25T19:52:31.083Z,97.375
2016-12-25T19:55:25.202Z,97.242
2016-12-25T19:58:19.297Z,97.215
2016-12-25T20:01:13.311Z,96.895
2016-12-25T20:04:07.253Z,96.597
2016-12-25T20:07:01.343Z,96.375
2016-12-25T20:09:55.386Z,96.246
2016-12-25T20:12:49.503Z,96.098
2016-12-25T20:15:45.241Z,96.033
2016-12-25T20:18:37.684Z,95.714
2016-12-25T20:21:31.646Z,95.590
2016-12-25T20:24:25.703Z,95.463
2016-12-25T20:27:19.736Z,95.323
2016-12-25T20:30:13.790Z,95.393
2016-12-25T20:33:07.751Z,95.321
2016-12-25T20:36:01.748Z,94.988
2016-12-25T20:38:55.827Z,95.139
2016-12-25T20:41:51.581Z,94.947
2016-12-25T20:44:45.470Z,94.913
2016-12-25T20:47:39.526Z,94.764
2016-12-25T20:50:31.864Z,94.684
2016-12-25T20:53:25.938Z,94.806
2016-12-25T20:56:20.041Z,94.770
2016-12-25T20:59:14.066Z,94.703
2016-12-25T21:02:08.120Z,94.651
2016-12-25T21:05:02.241Z,94.738
2016-12-25T21:07:56.258Z,94.732
2016-12-25T21:10:50.301Z,94.725
2016-12-25T21:13:44.336Z,94.833
2016-12-25T21:16:38.458Z,94.889
2016-12-25T21:19:32.564Z,94.936
2016-12-25T21:22:26.567Z,94.989
2016-12-25T21:25:20.724Z,95.041
2016-12-25T21:28:14.720Z,95.202
2016-12-25T21:31:08.817Z,95.480
2016-12-25T21:34:02.878Z,95.841
2016-12-25T21:36:56.841Z,96.100
2016-12-25T21:39:50.833Z,96.407
2016-12-25T21:42:44.905Z,96.564
2016-12-25T21:45:38.952Z,96.813
2016-12-25T21:48:32.995Z,97.044
2016-12-25T21:51:27.013Z,97.173
2016-12-25T21:54:21.045Z,97.463
2016-12-25T21:57:15.210Z,97.663
2016-12-25T22:00:09.807Z,97.881
2016-12-25T22:03:03.705Z,97.760
2016-12-25T22:05:57.627Z,98.154
2016-12-25T22:08:51.605Z,98.231
2016-12-25T22:11:45.635Z,98.349
2016-12-25T22:14:39.829Z,98.171
2016-12-25T22:17:33.796Z,98.270
2016-12-25T22:20:29.594Z,98.313
2016-12-25T22:23:22.030Z,98.205
2016-12-25T22:26:16.032Z,98.480
2016-12-25T22:29:11.857Z,98.508
2016-12-25T22:32:04.298Z,98.554
2016-12-25T22:34:58.326Z,98.485
2016-12-25T22:37:52.418Z,98.400
2016-12-25T22:40:46.493Z,98.282
2016-12-25T22:43:42.204Z,98.094
2016-12-25T22:46:34.480Z,97.878
2016-12-25T22:49:28.455Z,97.614
2016-12-25T22:52:22.618Z,97.218
2016-12-25T22:55:16.607Z,97.251
2016-12-25T22:58:10.686Z,97.168
2016-12-25T23:01:04.742Z,96.968
2016-12-25T23:03:58.837Z,96.853
2016-12-25T23:06:52.878Z,96.718
2016-12-25T23:09:47.095Z,96.664
2016-12-25T23:12:41.240Z,96.524
2016-12-25T23:15:35.253Z,96.404
2016-12-25T23:18:29.274Z,96.465
2016-12-25T23:21:23.318Z,96.437
2016-12-25T23:24:17.378Z,96.420
2016-12-25T23:27:11.489Z,96.515
2016-12-25T23:30:05.572Z,96.664
2016-12-25T23:32:59.616Z,96.787
2016-12-25T23:35:53.763Z,96.837
2016-12-25T23:38:47.877Z,97.028
2016-12-25T23:41:41.818Z,97.048
2016-12-25T23:44:35.833Z,97.041
2016-12-25T23:47:29.947Z,97.049
2016-12-25T23:50:24.000Z,96.877
2016-12-25T23:53:17.985Z,96.927
2016-12-25T23:56:12.007Z,97.006
2016-12-25T23:59:06.120Z,97.014
